Time;durP1;ratioP1;P1;durP2;ratioP2;P2;SDS_P1;SDS_P2;PMS_P1;PMS_P2;Temp;Humidity;BMP_temperature;BMP_pressure;BME280_temperature;BME280_humidity;BME280_pressure;Samples;Min_cycle;Max_cycle;Signal;HPM_P1;HPM_P2
2023/10/21 00:00:08;;;;;;;0.93;0.93;;;16.10;72.70;;;;;;5114667;28;20169;-75
2023/10/21 00:02:36;;;;;;;1.35;1.25;;;16.10;72.70;;;;;;5114284;28;20177;-74
2023/10/21 00:05:02;;;;;;;1.00;1.00;;;16.10;72.70;;;;;;5113450;28;20172;-73
2023/10/21 00:07:27;;;;;;;1.20;1.10;;;16.10;72.70;;;;;;5114108;28;20177;-73
2023/10/21 00:09:53;;;;;;;0.82;0.82;;;16.00;72.70;;;;;;5114293;28;20177;-72
2023/10/21 00:12:20;;;;;;;1.15;1.00;;;16.10;72.70;;;;;;5113433;28;20225;-72
2023/10/21 00:14:45;;;;;;;1.13;1.02;;;16.10;72.70;;;;;;5113295;28;20292;-74
2023/10/21 00:17:11;;;;;;;1.17;1.08;;;16.00;72.70;;;;;;5113953;28;20257;-73
2023/10/21 00:19:36;;;;;;;0.90;0.90;;;16.00;72.70;;;;;;5112974;28;20250;-73
2023/10/21 00:22:03;;;;;;;0.90;0.90;;;16.00;72.70;;;;;;5114214;28;20200;-73
2023/10/21 00:24:28;;;;;;;0.93;0.93;;;16.00;72.70;;;;;;5114127;28;20250;-72
2023/10/21 00:26:54;;;;;;;1.00;1.00;;;16.00;72.70;;;;;;5113483;28;20165;-72
2023/10/21 00:29:19;;;;;;;0.75;0.75;;;16.00;72.70;;;;;;5113669;28;20548;-73
2023/10/21 00:31:45;;;;;;;0.75;0.75;;;16.00;72.70;;;;;;5113398;28;20234;-74
2023/10/21 00:34:11;;;;;;;0.90;0.90;;;16.00;72.70;;;;;;5114147;28;20218;-75
2023/10/21 00:36:36;;;;;;;1.20;1.10;;;16.00;72.70;;;;;;5115087;28;20264;-72
2023/10/21 00:39:02;;;;;;;1.05;1.05;;;16.00;72.80;;;;;;5113001;28;20532;-74
2023/10/21 00:41:28;;;;;;;1.10;1.00;;;16.00;72.70;;;;;;5114298;28;20188;-75
2023/10/21 00:43:53;;;;;;;1.02;0.90;;;16.00;72.80;;;;;;5114080;28;20169;-75
2023/10/21 00:46:22;;;;;;;1.27;1.17;;;16.00;72.80;;;;;;5112745;28;20188;-75
2023/10/21 00:48:48;;;;;;;0.90;0.90;;;16.00;72.80;;;;;;5114405;28;20165;-73
2023/10/21 00:51:15;;;;;;;1.00;1.00;;;16.00;72.80;;;;;;5112977;28;20228;-74
2023/10/21 00:53:40;;;;;;;0.80;0.80;;;16.00;72.80;;;;;;5112991;28;20191;-72
2023/10/21 00:56:06;;;;;;;1.25;1.00;;;16.00;72.80;;;;;;5113302;28;20165;-74
2023/10/21 00:58:32;;;;;;;0.90;0.90;;;16.00;72.80;;;;;;5113414;28;20249;-75
2023/10/21 01:00:58;;;;;;;0.90;0.90;;;16.00;72.80;;;;;;5113203;28;20711;-73
2023/10/21 01:03:25;;;;;;;1.15;1.13;;;16.00;72.80;;;;;;5113465;28;20181;-73
2023/10/21 01:05:51;;;;;;;0.80;0.80;;;16.00;72.80;;;;;;5113353;28;20643;-72
2023/10/21 01:08:16;;;;;;;1.00;1.00;;;16.00;72.80;;;;;;5112398;28;20168;-73
2023/10/21 01:10:42;;;;;;;0.85;0.85;;;16.00;72.80;;;;;;5113148;28;20280;-71
2023/10/21 01:13:07;;;;;;;1.08;0.95;;;16.00;72.80;;;;;;5113143;28;20169;-74
2023/10/21 01:15:33;;;;;;;0.93;0.93;;;16.00;72.80;;;;;;5112185;28;20169;-73
2023/10/21 01:17:58;;;;;;;0.90;0.90;;;16.00;72.80;;;;;;5113262;28;20245;-73
2023/10/21 01:20:24;;;;;;;1.17;1.00;;;16.00;72.80;;;;;;5113230;28;20177;-73
2023/10/21 01:22:49;;;;;;;1.10;1.00;;;16.00;72.80;;;;;;5112353;28;20623;-71
2023/10/21 01:25:15;;;;;;;1.00;1.00;;;15.90;72.80;;;;;;5112799;28;20199;-73
2023/10/21 01:27:43;;;;;;;0.90;0.90;;;16.00;72.80;;;;;;5112978;28;20256;-72
2023/10/21 01:30:09;;;;;;;0.88;0.88;;;16.00;72.80;;;;;;5111067;28;20699;-73
2023/10/21 01:32:35;;;;;;;0.90;0.90;;;16.00;72.80;;;;;;5115351;28;20177;-74
2023/10/21 01:35:00;;;;;;;1.25;1.15;;;16.00;72.90;;;;;;5112173;28;20303;-75
2023/10/21 01:37:26;;;;;;;1.55;0.98;;;15.90;72.80;;;;;;5114878;28;20173;-75
2023/10/21 01:39:54;;;;;;;0.90;0.90;;;16.00;72.80;;;;;;5113227;28;20169;-73
2023/10/21 01:42:20;;;;;;;0.80;0.80;;;15.90;72.80;;;;;;5112968;28;20572;-75
2023/10/21 01:44:45;;;;;;;0.90;0.90;;;15.90;72.80;;;;;;5113413;28;20176;-74
2023/10/21 01:47:11;;;;;;;0.88;0.88;;;15.90;72.80;;;;;;5113185;28;20628;-74
2023/10/21 01:49:38;;;;;;;0.90;0.90;;;15.90;72.80;;;;;;5113731;28;20234;-75
2023/10/21 01:52:04;;;;;;;0.82;0.82;;;15.90;72.80;;;;;;5114165;28;20224;-74
2023/10/21 01:54:29;;;;;;;1.05;1.02;;;15.90;72.80;;;;;;5113533;28;20173;-74
2023/10/21 01:56:55;;;;;;;0.75;0.75;;;15.90;72.80;;;;;;5112196;28;20235;-73
2023/10/21 01:59:21;;;;;;;1.08;1.00;;;15.90;72.80;;;;;;5115038;28;20173;-74
2023/10/21 02:01:47;;;;;;;0.90;0.90;;;15.90;72.80;;;;;;5114632;28;20181;-74
2023/10/21 02:04:12;;;;;;;0.70;0.70;;;15.90;72.80;;;;;;5111784;28;20234;-74
2023/10/21 02:06:38;;;;;;;0.90;0.90;;;15.90;72.80;;;;;;5112968;28;20184;-74
2023/10/21 02:09:03;;;;;;;0.75;0.75;;;15.90;72.80;;;;;;5112522;28;20177;-73
2023/10/21 02:11:29;;;;;;;1.00;1.00;;;15.90;73.60;;;;;;5112814;28;20201;-73
2023/10/21 02:13:55;;;;;;;0.90;0.80;;;15.90;72.80;;;;;;5112847;28;20180;-73
2023/10/21 02:16:20;;;;;;;1.00;1.00;;;15.90;72.80;;;;;;5112539;28;20169;-73
2023/10/21 02:18:46;;;;;;;0.82;0.82;;;15.90;72.80;;;;;;5112031;28;20543;-73
2023/10/21 02:21:11;;;;;;;0.90;0.90;;;15.90;72.80;;;;;;5112415;28;20541;-73
2023/10/21 02:23:37;;;;;;;0.95;0.90;;;15.90;72.80;;;;;;5112294;28;20170;-73
2023/10/21 02:26:06;;;;;;;1.10;1.00;;;15.90;72.80;;;;;;5111602;28;20196;-72
2023/10/21 02:28:32;;;;;;;1.25;0.98;;;15.90;72.80;;;;;;5112275;28;20260;-74
2023/10/21 02:31:01;;;;;;;0.90;0.90;;;15.90;73.60;;;;;;5113704;28;20236;-74
2023/10/21 02:33:26;;;;;;;1.23;0.98;;;15.90;72.80;;;;;;5112697;28;20173;-75
2023/10/21 02:35:52;;;;;;;0.90;0.90;;;15.90;72.80;;;;;;5114011;28;20225;-74
2023/10/21 02:38:18;;;;;;;0.60;0.60;;;15.90;72.80;;;;;;5110892;28;20539;-75
2023/10/21 02:40:46;;;;;;;0.90;0.90;;;15.90;72.80;;;;;;5112950;28;20706;-73
2023/10/21 02:43:12;;;;;;;0.90;0.90;;;15.90;72.80;;;;;;5115751;28;20180;-77
2023/10/21 02:45:38;;;;;;;0.90;0.90;;;15.90;72.90;;;;;;5115673;28;20177;-74
2023/10/21 02:48:03;;;;;;;1.00;1.00;;;15.90;72.80;;;;;;5116323;28;20184;-76
2023/10/21 02:50:29;;;;;;;1.00;1.00;;;15.90;72.80;;;;;;5115958;28;20236;-74
2023/10/21 02:52:54;;;;;;;0.90;0.90;;;15.90;72.80;;;;;;5115274;28;20722;-73
2023/10/21 02:55:20;;;;;;;0.90;0.90;;;15.90;72.80;;;;;;5115456;28;20195;-75
2023/10/21 02:57:45;;;;;;;1.05;1.05;;;15.90;72.80;;;;;;5115846;28;20188;-72
2023/10/21 03:00:15;;;;;;;0.85;0.85;;;15.90;72.80;;;;;;5115479;28;20173;-75
2023/10/21 03:02:44;;;;;;;0.85;0.85;;;15.90;72.90;;;;;;5115848;28;20173;-73
2023/10/21 03:05:10;;;;;;;0.80;0.80;;;15.90;72.90;;;;;;5116294;28;20177;-74
2023/10/21 03:07:35;;;;;;;0.90;0.90;;;15.90;72.90;;;;;;5114789;28;20669;-75
2023/10/21 03:10:01;;;;;;;0.80;0.80;;;15.80;72.80;;;;;;5115913;28;20218;-73
2023/10/21 03:12:26;;;;;;;0.93;0.90;;;15.90;72.90;;;;;;5115412;28;20220;-75
2023/10/21 03:14:52;;;;;;;0.80;0.80;;;15.90;72.90;;;;;;5116417;28;20200;-72
2023/10/21 03:17:19;;;;;;;0.80;0.80;;;15.90;72.80;;;;;;5117601;28;20664;-74
2023/10/21 03:19:44;;;;;;;0.93;0.93;;;15.80;72.70;;;;;;5120164;28;20168;-72
2023/10/21 03:22:10;;;;;;;1.00;1.00;;;15.90;72.80;;;;;;5114538;28;20196;-72
2023/10/21 03:24:36;;;;;;;0.70;0.70;;;15.80;72.70;;;;;;5115256;28;20542;-73
2023/10/21 03:27:02;;;;;;;0.95;0.95;;;15.80;72.70;;;;;;5115244;28;20176;-72
2023/10/21 03:29:27;;;;;;;0.90;0.88;;;15.80;72.80;;;;;;5114826;28;20287;-74
2023/10/21 03:31:53;;;;;;;0.93;0.93;;;15.80;72.70;;;;;;5115624;28;20691;-73
2023/10/21 03:34:18;;;;;;;0.93;0.93;;;15.80;72.80;;;;;;5116981;28;20184;-76
2023/10/21 03:36:44;;;;;;;0.70;0.70;;;15.80;72.80;;;;;;5115811;28;20173;-74
2023/10/21 03:39:09;;;;;;;0.90;0.90;;;15.80;72.70;;;;;;5115262;28;20267;-74
2023/10/21 03:41:35;;;;;;;1.00;0.90;;;15.80;72.70;;;;;;5114741;28;20290;-75
2023/10/21 03:44:01;;;;;;;0.70;0.70;;;15.80;72.80;;;;;;5115323;28;20165;-76
2023/10/21 03:46:27;;;;;;;0.95;0.82;;;15.80;72.70;;;;;;5115374;28;20177;-77
2023/10/21 03:48:52;;;;;;;0.80;0.80;;;15.80;72.80;;;;;;5114472;28;20176;-74
2023/10/21 03:51:18;;;;;;;0.60;0.60;;;15.80;72.80;;;;;;5114264;28;20596;-75
2023/10/21 03:53:43;;;;;;;1.20;1.10;;;15.80;72.80;;;;;;5113780;28;20166;-74
2023/10/21 03:56:09;;;;;;;0.90;0.90;;;15.80;72.80;;;;;;5114433;28;20252;-74
2023/10/21 03:58:38;;;;;;;0.80;0.70;;;15.80;72.80;;;;;;5115208;28;20252;-77
2023/10/21 04:01:05;;;;;;;0.90;0.90;;;15.80;72.80;;;;;;5114697;28;20184;-74
2023/10/21 04:03:30;;;;;;;0.68;0.68;;;15.80;72.80;;;;;;5114028;28;20173;-75
2023/10/21 04:05:56;;;;;;;1.02;0.90;;;15.80;72.80;;;;;;5114417;28;20196;-72
2023/10/21 04:08:22;;;;;;;0.90;0.90;;;15.80;72.80;;;;;;5114022;28;20188;-73
2023/10/21 04:10:47;;;;;;;1.00;0.90;;;15.80;72.80;;;;;;5113718;28;20213;-72
2023/10/21 04:13:13;;;;;;;0.88;0.88;;;15.80;72.80;;;;;;5113953;28;20172;-74
2023/10/21 04:15:39;;;;;;;0.90;0.90;;;15.80;72.80;;;;;;5114452;28;20185;-74
2023/10/21 04:18:04;;;;;;;1.00;0.90;;;15.80;72.80;;;;;;5113422;28;20161;-73
2023/10/21 04:20:33;;;;;;;0.80;0.80;;;15.80;72.80;;;;;;5113980;28;20165;-73
2023/10/21 04:22:59;;;;;;;0.85;0.80;;;15.70;72.70;;;;;;5113776;28;20179;-73
2023/10/21 04:25:25;;;;;;;0.90;0.90;;;15.80;72.80;;;;;;5113513;28;20260;-72
2023/10/21 04:27:51;;;;;;;1.00;0.90;;;15.80;72.80;;;;;;5114031;28;20212;-73
2023/10/21 04:30:16;;;;;;;1.20;0.90;;;15.80;72.80;;;;;;5113774;28;20565;-74
2023/10/21 04:32:42;;;;;;;0.85;0.85;;;15.80;72.80;;;;;;5113835;28;20667;-74
2023/10/21 04:35:08;;;;;;;0.70;0.70;;;15.80;72.80;;;;;;5117222;28;20654;-75
2023/10/21 04:37:35;;;;;;;1.00;0.90;;;15.80;72.80;;;;;;5115843;28;20207;-74
2023/10/21 04:40:00;;;;;;;0.70;0.70;;;15.80;72.80;;;;;;5113057;28;20173;-75
2023/10/21 04:42:28;;;;;;;0.80;0.80;;;15.80;72.80;;;;;;5115057;28;20169;-74
2023/10/21 04:44:54;;;;;;;0.80;0.80;;;15.80;72.80;;;;;;5113377;28;20228;-74
2023/10/21 04:47:20;;;;;;;0.80;0.80;;;15.80;72.80;;;;;;5113599;28;20666;-75
2023/10/21 04:49:45;;;;;;;0.80;0.80;;;15.80;72.80;;;;;;5115208;28;20180;-74
2023/10/21 04:52:11;;;;;;;0.90;0.90;;;15.80;72.80;;;;;;5112168;28;20251;-73
2023/10/21 04:54:37;;;;;;;0.90;0.90;;;15.80;72.80;;;;;;5113590;28;20222;-73
2023/10/21 04:57:02;;;;;;;0.73;0.73;;;15.80;72.80;;;;;;5113399;28;20207;-74
2023/10/21 04:59:28;;;;;;;0.70;0.70;;;15.70;72.80;;;;;;5113837;28;20176;-75
2023/10/21 05:01:53;;;;;;;1.00;1.00;;;15.70;72.80;;;;;;5114249;28;20177;-74
2023/10/21 05:04:19;;;;;;;0.80;0.80;;;15.70;72.80;;;;;;5113047;28;20255;-74
2023/10/21 05:06:44;;;;;;;0.70;0.70;;;15.80;72.90;;;;;;5112570;28;20173;-72
2023/10/21 05:09:10;;;;;;;0.85;0.85;;;15.70;72.80;;;;;;5112580;28;20181;-73
2023/10/21 05:11:36;;;;;;;1.08;0.98;;;15.70;72.80;;;;;;5113249;28;20215;-72
2023/10/21 05:14:01;;;;;;;0.90;0.90;;;15.80;72.90;;;;;;5112385;28;20168;-73
2023/10/21 05:16:27;;;;;;;0.90;0.90;;;15.70;73.60;;;;;;5113207;28;20173;-73
2023/10/21 05:18:52;;;;;;;0.80;0.80;;;15.70;72.80;;;;;;5113405;28;20242;-72
2023/10/21 05:21:18;;;;;;;0.80;0.80;;;15.70;72.80;;;;;;5112178;28;21009;-74
2023/10/21 05:23:43;;;;;;;0.70;0.70;;;15.70;72.80;;;;;;5113366;28;20615;-71
2023/10/21 05:26:09;;;;;;;0.70;0.70;;;15.70;72.80;;;;;;5112834;28;20532;-72
2023/10/21 05:28:34;;;;;;;1.30;1.00;;;15.70;72.80;;;;;;5112198;28;20180;-72
2023/10/21 05:31:01;;;;;;;0.93;0.73;;;15.70;72.80;;;;;;5112778;28;20230;-74
2023/10/21 05:33:27;;;;;;;0.70;0.70;;;15.70;72.80;;;;;;5112641;28;20726;-75
2023/10/21 05:36:01;;;;;;;0.80;0.80;;;15.70;72.80;;;;;;5112999;28;20264;-73
2023/10/21 05:38:27;;;;;;;0.90;0.90;;;15.70;72.80;;;;;;5113859;28;20214;-75
2023/10/21 05:40:53;;;;;;;1.05;1.00;;;15.70;72.80;;;;;;5113212;28;20643;-73
2023/10/21 05:43:18;;;;;;;0.80;0.80;;;15.70;72.80;;;;;;5112191;28;20259;-76
2023/10/21 05:45:44;;;;;;;0.73;0.73;;;15.70;72.80;;;;;;5113488;28;20173;-74
2023/10/21 05:48:10;;;;;;;0.73;0.73;;;15.70;72.90;;;;;;5113725;28;20173;-75
2023/10/21 05:50:36;;;;;;;1.00;1.00;;;15.70;72.80;;;;;;5113203;28;20208;-76
2023/10/21 05:53:03;;;;;;;0.75;0.75;;;15.70;72.80;;;;;;5112463;28;20579;-75
2023/10/21 05:55:28;;;;;;;0.70;0.70;;;15.70;72.80;;;;;;5112736;28;20185;-75
2023/10/21 05:57:54;;;;;;;0.90;0.90;;;15.70;72.80;;;;;;5113823;28;20525;-74
2023/10/21 06:00:21;;;;;;;0.70;0.70;;;15.70;72.80;;;;;;5114009;28;20191;-75
2023/10/21 06:02:47;;;;;;;0.80;0.80;;;15.70;72.90;;;;;;5112228;28;20177;-74
2023/10/21 06:05:14;;;;;;;0.80;0.80;;;15.70;72.80;;;;;;5112367;28;20168;-74
2023/10/21 06:07:40;;;;;;;1.00;1.00;;;15.70;72.80;;;;;;5112841;28;20260;-73
2023/10/21 06:10:07;;;;;;;0.80;0.80;;;15.70;72.80;;;;;;5111908;28;20173;-74
2023/10/21 06:12:35;;;;;;;0.75;0.75;;;15.80;73.20;;;;;;5111739;28;20714;-73
2023/10/21 06:15:01;;;;;;;0.80;0.80;;;15.90;73.10;;;;;;5112565;28;20640;-76
2023/10/21 06:17:26;;;;;;;0.65;0.65;;;16.00;73.00;;;;;;5114077;28;20211;-74
2023/10/21 06:19:52;;;;;;;0.80;0.80;;;16.10;72.90;;;;;;5116745;28;20632;-73
2023/10/21 06:22:18;;;;;;;0.75;0.75;;;16.30;72.60;;;;;;5116368;28;20999;-73
2023/10/21 06:24:44;;;;;;;0.90;0.90;;;16.50;72.30;;;;;;5115809;28;20169;-72
2023/10/21 06:27:11;;;;;;;0.80;0.80;;;16.60;71.90;;;;;;5116270;28;20181;-73
2023/10/21 06:29:36;;;;;;;0.60;0.60;;;16.80;71.40;;;;;;5116053;28;20659;-73
2023/10/21 06:32:06;;;;;;;0.68;0.68;;;17.10;70.70;;;;;;5115897;28;20205;-75
2023/10/21 06:34:35;;;;;;;0.63;0.63;;;17.30;70.00;;;;;;5117039;28;20180;-75
2023/10/21 06:37:00;;;;;;;0.88;0.65;;;17.50;69.50;;;;;;5118977;28;20217;-74
2023/10/21 06:39:26;;;;;;;0.60;0.60;;;17.60;68.90;;;;;;5115609;28;20256;-75
2023/10/21 06:41:52;;;;;;;0.75;0.75;;;17.70;68.70;;;;;;5117768;28;20310;-73
2023/10/21 06:44:17;;;;;;;0.50;0.50;;;17.80;68.40;;;;;;5116996;28;20174;-76
2023/10/21 06:46:43;;;;;;;0.50;0.50;;;17.90;68.30;;;;;;5115525;28;20542;-74
2023/10/21 06:49:09;;;;;;;0.60;0.60;;;17.90;68.00;;;;;;5118141;28;20181;-75
2023/10/21 06:51:36;;;;;;;0.65;0.65;;;17.90;67.90;;;;;;5115769;28;20237;-76
2023/10/21 06:54:01;;;;;;;0.50;0.50;;;18.00;67.70;;;;;;5115871;28;20180;-74
2023/10/21 06:56:27;;;;;;;0.63;0.63;;;18.10;67.70;;;;;;5115719;28;20181;-76
2023/10/21 06:58:52;;;;;;;0.70;0.70;;;18.00;67.70;;;;;;5116577;28;20537;-73
2023/10/21 07:01:18;;;;;;;0.50;0.50;;;18.00;67.80;;;;;;5116354;28;20203;-75
2023/10/21 07:03:43;;;;;;;0.60;0.60;;;18.00;68.10;;;;;;5116504;28;20169;-75
2023/10/21 07:06:09;;;;;;;0.80;0.80;;;17.90;68.30;;;;;;5116767;28;20173;-74
2023/10/21 07:08:35;;;;;;;0.60;0.60;;;17.80;68.50;;;;;;5115475;28;20176;-75
2023/10/21 07:11:01;;;;;;;0.70;0.70;;;17.70;68.80;;;;;;5115500;28;20212;-75
2023/10/21 07:13:27;;;;;;;0.50;0.43;;;17.60;69.00;;;;;;5116171;28;20173;-76
2023/10/21 07:15:52;;;;;;;0.60;0.52;;;17.50;69.20;;;;;;5115522;28;20643;-72
2023/10/21 07:18:18;;;;;;;0.70;0.70;;;17.50;69.50;;;;;;5115351;28;20764;-74
2023/10/21 07:20:43;;;;;;;0.63;0.63;;;17.40;69.70;;;;;;5114757;28;20595;-73
2023/10/21 07:23:12;;;;;;;0.45;0.45;;;17.30;69.90;;;;;;5115271;28;20526;-73
2023/10/21 07:25:38;;;;;;;0.75;0.70;;;17.20;70.10;;;;;;5115421;28;20188;-73
2023/10/21 07:28:04;;;;;;;0.50;0.50;;;17.20;70.10;;;;;;5113403;28;20569;-74
2023/10/21 07:30:29;;;;;;;0.77;0.70;;;17.10;70.40;;;;;;5116818;28;20169;-74
2023/10/21 07:32:55;;;;;;;0.70;0.70;;;17.10;70.60;;;;;;5117106;28;20576;-74
2023/10/21 07:35:21;;;;;;;0.70;0.70;;;17.00;70.70;;;;;;5116588;28;20605;-73
2023/10/21 07:37:46;;;;;;;0.90;0.70;;;17.00;70.90;;;;;;5117098;28;20180;-74
2023/10/21 07:40:12;;;;;;;0.50;0.50;;;17.10;70.90;;;;;;5121592;28;20165;-75
2023/10/21 07:42:38;;;;;;;0.60;0.60;;;17.10;70.80;;;;;;5115876;28;20199;-74
2023/10/21 07:45:05;;;;;;;0.60;0.60;;;17.10;70.70;;;;;;5115218;28;20550;-76
2023/10/21 07:47:32;;;;;;;0.52;0.52;;;17.00;70.80;;;;;;5115604;28;20248;-74
2023/10/21 07:49:58;;;;;;;0.55;0.55;;;17.00;71.00;;;;;;5115916;28;20188;-73
2023/10/21 07:52:24;;;;;;;0.80;0.80;;;16.90;71.10;;;;;;5114405;28;20229;-74
2023/10/21 07:54:50;;;;;;;0.60;0.60;;;16.90;71.20;;;;;;5114144;28;20201;-72
2023/10/21 07:57:16;;;;;;;0.95;0.70;;;16.80;71.20;;;;;;5114967;28;20216;-75
2023/10/21 07:59:44;;;;;;;0.80;0.73;;;16.80;71.40;;;;;;5115536;28;20203;-73
2023/10/21 08:02:10;;;;;;;0.70;0.70;;;16.90;71.50;;;;;;5113404;28;20285;-73
2023/10/21 08:04:35;;;;;;;0.80;0.80;;;16.90;71.40;;;;;;5114692;28;20267;-73
2023/10/21 08:07:01;;;;;;;0.75;0.70;;;16.90;71.30;;;;;;5114486;28;20580;-72
2023/10/21 08:09:26;;;;;;;0.70;0.70;;;16.90;71.20;;;;;;5113629;28;20172;-75
2023/10/21 08:11:52;;;;;;;0.63;0.63;;;16.90;71.20;;;;;;5114325;28;20209;-72
2023/10/21 08:14:18;;;;;;;0.60;0.60;;;16.90;71.20;;;;;;5114034;28;20173;-73
2023/10/21 08:16:44;;;;;;;0.82;0.70;;;16.90;71.30;;;;;;5113697;28;20169;-72
2023/10/21 08:19:09;;;;;;;0.52;0.52;;;16.90;71.40;;;;;;5114077;28;20177;-73
2023/10/21 08:21:35;;;;;;;0.70;0.70;;;16.80;71.40;;;;;;5114054;28;20252;-73
2023/10/21 08:24:02;;;;;;;0.60;0.60;;;16.80;71.60;;;;;;5113165;28;20162;-73
2023/10/21 08:26:29;;;;;;;0.85;0.65;;;16.80;71.70;;;;;;5113991;28;20220;-72
2023/10/21 08:28:54;;;;;;;0.93;0.60;;;16.70;71.70;;;;;;5114048;28;20230;-72
2023/10/21 08:31:20;;;;;;;0.65;0.65;;;16.80;71.80;;;;;;5113131;28;20205;-73
2023/10/21 08:33:46;;;;;;;0.40;0.40;;;16.80;71.70;;;;;;5115384;28;20181;-74
2023/10/21 08:36:18;;;;;;;0.70;0.60;;;16.80;71.60;;;;;;5114392;28;20173;-74
2023/10/21 08:38:44;;;;;;;0.50;0.50;;;16.90;71.60;;;;;;5113183;28;20181;-72
2023/10/21 08:41:11;;;;;;;0.50;0.50;;;16.80;71.40;;;;;;5113216;28;20185;-74
2023/10/21 08:43:37;;;;;;;0.60;0.60;;;16.90;71.40;;;;;;5114001;28;20181;-73
2023/10/21 08:46:03;;;;;;;0.43;0.43;;;17.00;71.30;;;;;;5113827;28;20169;-74
2023/10/21 08:48:28;;;;;;;0.43;0.43;;;17.00;71.10;;;;;;5095591;28;20176;-74
2023/10/21 08:50:54;;;;;;;0.80;0.80;;;17.00;71.00;;;;;;5095391;28;20296;-71
2023/10/21 08:53:19;;;;;;;0.70;0.70;;;17.10;71.00;;;;;;5094545;28;20515;-74
2023/10/21 08:55:45;;;;;;;0.57;0.57;;;17.10;71.10;;;;;;5113338;28;20173;-72
2023/10/21 08:58:11;;;;;;;0.60;0.60;;;17.00;71.20;;;;;;5112788;28;20185;-74
2023/10/21 09:00:38;;;;;;;0.65;0.65;;;17.00;71.30;;;;;;5113526;28;20576;-72
2023/10/21 09:03:04;;;;;;;0.50;0.50;;;17.00;71.30;;;;;;5095425;28;20259;-73
2023/10/21 09:05:29;;;;;;;0.60;0.60;;;17.00;71.30;;;;;;5112748;28;20256;-72
2023/10/21 09:07:55;;;;;;;0.60;0.60;;;17.00;71.20;;;;;;5112766;28;20208;-71
2023/10/21 09:10:21;;;;;;;0.80;0.70;;;17.10;71.30;;;;;;5112814;28;20699;-74
2023/10/21 09:12:49;;;;;;;0.50;0.50;;;17.00;71.30;;;;;;5112799;28;20291;-72
2023/10/21 09:15:15;;;;;;;0.47;0.47;;;17.10;71.50;;;;;;5113113;28;20533;-75
2023/10/21 09:17:45;;;;;;;0.40;0.40;;;17.10;71.50;;;;;;5113096;28;20180;-72
2023/10/21 09:20:17;;;;;;;0.50;0.50;;;17.10;71.50;;;;;;5112661;28;20188;-73
2023/10/21 09:22:49;;;;;;;0.43;0.43;;;17.10;71.50;;;;;;5112932;28;20181;-72
2023/10/21 09:25:19;;;;;;;0.60;0.60;;;17.10;71.50;;;;;;5113039;28;20169;-73
2023/10/21 09:27:46;;;;;;;0.57;0.57;;;17.10;71.60;;;;;;5112822;28;20226;-75
2023/10/21 09:30:14;;;;;;;2.40;0.80;;;17.10;71.40;;;;;;5112956;28;20627;-76
2023/10/21 09:32:41;;;;;;;0.93;0.60;;;17.10;71.50;;;;;;5114988;28;20240;-74
2023/10/21 09:35:18;;;;;;;0.57;0.57;;;17.10;71.60;;;;;;5113250;28;20204;-76
2023/10/21 09:37:43;;;;;;;0.80;0.60;;;17.10;71.70;;;;;;5114367;28;20221;-73
2023/10/21 09:40:09;;;;;;;0.55;0.47;;;17.10;71.70;;;;;;5113860;28;20537;-76
2023/10/21 09:42:44;;;;;;;0.57;0.57;;;17.10;71.60;;;;;;5113095;28;20180;-74
2023/10/21 09:45:13;;;;;;;0.90;0.60;;;17.20;71.40;;;;;;5113112;28;20169;-74
2023/10/21 09:47:40;;;;;;;1.00;0.70;;;17.20;71.30;;;;;;5112495;28;20176;-75
2023/10/21 09:50:09;;;;;;;0.98;0.90;;;17.20;71.30;;;;;;5113728;28;20177;-75
2023/10/21 09:52:56;;;;;;;0.50;0.50;;;17.10;71.40;;;;;;5115019;28;20269;-73
2023/10/21 09:55:24;;;;;;;0.60;0.60;;;17.10;71.60;;;;;;5098771;28;20206;-75
2023/10/21 09:57:52;;;;;;;1.13;0.50;;;17.10;71.70;;;;;;5099234;28;20181;-73
2023/10/21 10:00:19;;;;;;;0.60;0.60;;;17.10;71.70;;;;;;5117088;28;20511;-75
2023/10/21 10:02:47;;;;;;;0.80;0.80;;;17.00;71.80;;;;;;5082413;28;20172;-73
2023/10/21 10:05:14;;;;;;;0.63;0.60;;;17.00;71.70;;;;;;5099004;28;20248;-74
2023/10/21 10:07:40;;;;;;;0.82;0.47;;;17.10;71.80;;;;;;5098717;28;20234;-72
2023/10/21 10:10:06;;;;;;;0.93;0.70;;;17.00;71.80;;;;;;5098182;28;20169;-73
2023/10/21 10:12:38;;;;;;;0.70;0.70;;;17.00;71.80;;;;;;5116288;28;20441;-75
2023/10/21 10:15:35;;;;;;;1.15;0.60;;;16.90;71.90;;;;;;5098869;28;20196;-73
2023/10/21 10:18:13;;;;;;;0.95;0.65;;;16.90;72.00;;;;;;5116328;28;20647;-74
2023/10/21 10:20:49;;;;;;;0.50;0.50;;;16.90;72.00;;;;;;5116507;28;20176;-74
2023/10/21 10:23:15;;;;;;;0.50;0.50;;;16.90;72.10;;;;;;5115360;28;20177;-73
2023/10/21 10:25:49;;;;;;;1.05;0.68;;;16.90;72.10;;;;;;5116499;28;20174;-73
2023/10/21 10:28:25;;;;;;;0.55;0.55;;;16.90;72.00;;;;;;5116320;28;20173;-74
2023/10/21 10:30:52;;;;;;;0.70;0.70;;;16.80;71.90;;;;;;5098567;28;20658;-74
2023/10/21 10:33:21;;;;;;;0.88;0.50;;;16.90;71.90;;;;;;5115943;28;20185;-76
2023/10/21 10:35:54;;;;;;;0.95;0.70;;;17.00;72.20;;;;;;5116571;28;20173;-74
2023/10/21 10:38:36;;;;;;;0.65;0.52;;;17.00;71.80;;;;;;5115033;28;20208;-74
2023/10/21 10:41:09;;;;;;;0.57;0.47;;;17.00;71.60;;;;;;5115965;28;20176;-73
2023/10/21 10:43:35;;;;;;;0.60;0.60;;;17.00;71.70;;;;;;5115916;28;20684;-74
2023/10/21 10:46:01;;;;;;;0.52;0.52;;;17.10;71.50;;;;;;5116626;28;20635;-74
2023/10/21 10:48:29;;;;;;;0.70;0.52;;;17.00;71.60;;;;;;5116103;28;20170;-75
2023/10/21 10:51:01;;;;;;;0.60;0.60;;;17.10;71.60;;;;;;5115223;28;20213;-71
2023/10/21 10:53:29;;;;;;;0.52;0.52;;;17.10;71.50;;;;;;5115635;28;20181;-74
2023/10/21 10:55:55;;;;;;;1.10;0.55;;;17.10;71.50;;;;;;5115817;28;20177;-72
2023/10/21 10:58:27;;;;;;;0.82;0.60;;;17.10;71.50;;;;;;5114965;28;20620;-75
2023/10/21 11:00:53;;;;;;;0.90;0.63;;;17.10;71.60;;;;;;5116341;28;20224;-72
2023/10/21 11:03:27;;;;;;;0.82;0.40;;;17.10;71.30;;;;;;5115324;28;20209;-73
2023/10/21 11:05:53;;;;;;;0.50;0.50;;;17.10;71.30;;;;;;5115104;28;20237;-71
2023/10/21 11:08:19;;;;;;;0.50;0.50;;;17.10;71.30;;;;;;5115190;28;20696;-72
2023/10/21 11:10:44;;;;;;;0.50;0.43;;;17.20;71.20;;;;;;5115420;28;20204;-71
2023/10/21 11:13:10;;;;;;;0.70;0.60;;;17.20;71.20;;;;;;5114490;28;20177;-73
2023/10/21 11:15:44;;;;;;;1.05;0.45;;;17.20;71.30;;;;;;5115226;28;20582;-73
2023/10/21 11:18:11;;;;;;;0.80;0.50;;;17.30;71.00;;;;;;5097644;28;20310;-73
2023/10/21 11:20:48;;;;;;;0.50;0.50;;;17.40;70.80;;;;;;5114520;28;20557;-72
2023/10/21 11:23:16;;;;;;;0.98;0.40;;;17.50;70.80;;;;;;5115117;28;20261;-73
2023/10/21 11:25:41;;;;;;;0.75;0.55;;;17.50;70.50;;;;;;5114636;28;20173;-71
2023/10/21 11:28:07;;;;;;;0.77;0.63;;;17.50;70.50;;;;;;5115049;28;20177;-74
2023/10/21 11:30:34;;;;;;;0.50;0.50;;;17.60;70.40;;;;;;5115317;28;20264;-74
2023/10/21 11:33:05;;;;;;;2.40;0.65;;;17.60;70.40;;;;;;5096368;28;20177;-76
2023/10/21 11:35:31;;;;;;;1.25;0.40;;;17.60;70.40;;;;;;5098370;28;20275;-74
2023/10/21 11:37:57;;;;;;;1.52;0.60;;;17.70;70.40;;;;;;5097095;28;20267;-73
2023/10/21 11:40:23;;;;;;;0.50;0.45;;;17.70;70.40;;;;;;5113850;28;20173;-75
2023/10/21 11:42:59;;;;;;;0.47;0.40;;;17.70;70.40;;;;;;5098034;28;20176;-73
2023/10/21 11:45:29;;;;;;;0.82;0.52;;;17.60;70.50;;;;;;5115582;28;20188;-77
2023/10/21 11:48:09;;;;;;;0.73;0.60;;;17.50;70.80;;;;;;5116271;28;20169;-74
2023/10/21 11:50:38;;;;;;;0.50;0.50;;;17.60;70.80;;;;;;5099000;28;20250;-74
2023/10/21 11:53:05;;;;;;;0.32;0.30;;;17.60;70.60;;;;;;5096045;28;20228;-74
2023/10/21 12:17:05;;;;;;;0.85;0.65;;;17.50;70.90;;;;;;5113724;28;20185;-72
2023/10/21 12:19:50;;;;;;;1.13;0.88;;;17.50;70.90;;;;;;5114430;28;20168;-75
2023/10/21 12:22:54;;;;;;;0.88;0.50;;;17.50;71.00;;;;;;5113219;28;20165;-73
2023/10/21 12:25:53;;;;;;;0.85;0.65;;;17.50;71.00;;;;;;5113596;28;20181;-72
2023/10/21 12:38:40;;;;;;;0.68;0.50;;;17.50;70.50;;;;;;5113711;28;20279;-75
2023/10/21 12:43:35;;;;;;;0.55;0.50;;;17.30;70.90;;;;;;5113506;28;20239;-76
2023/10/21 12:46:16;;;;;;;1.20;0.88;;;17.40;71.10;;;;;;5114178;28;20185;-75
2023/10/21 12:48:42;;;;;;;0.85;0.50;;;17.40;70.90;;;;;;5113701;28;20210;-75
2023/10/21 12:51:09;;;;;;;1.15;0.50;;;17.40;70.90;;;;;;5112546;28;20261;-75
2023/10/21 12:53:35;;;;;;;0.73;0.50;;;17.40;71.00;;;;;;5113360;28;20218;-74
2023/10/21 12:56:00;;;;;;;1.02;0.43;;;17.50;70.60;;;;;;5115139;28;20177;-75
2023/10/21 12:58:26;;;;;;;1.52;0.60;;;17.60;70.50;;;;;;5114571;28;20196;-75
2023/10/21 13:00:51;;;;;;;0.55;0.55;;;17.60;70.50;;;;;;5115753;28;20169;-74
2023/10/21 13:03:17;;;;;;;1.15;0.60;;;17.50;70.50;;;;;;5113881;28;20168;-74
2023/10/21 13:05:46;;;;;;;0.93;0.55;;;17.40;70.70;;;;;;5113537;28;20632;-74
2023/10/21 13:08:11;;;;;;;1.50;0.80;;;17.30;70.80;;;;;;5113103;28;20173;-74
2023/10/21 13:10:37;;;;;;;0.65;0.40;;;17.30;71.00;;;;;;5113076;28;20180;-73
2023/10/21 13:13:04;;;;;;;2.20;0.90;;;17.30;71.00;;;;;;5112448;28;20185;-75
2023/10/21 13:15:29;;;;;;;1.38;0.80;;;17.50;70.90;;;;;;5113143;28;20184;-73
2023/10/21 13:17:55;;;;;;;0.85;0.65;;;17.50;70.70;;;;;;5113361;28;20255;-73
2023/10/21 13:20:20;;;;;;;0.65;0.60;;;17.50;70.60;;;;;;5112154;28;20169;-73